sensor_id;sensor_type;location;lat;lon;timestamp;P1;durP1;ratioP1;P2;durP2;ratioP2
58360;SDS011;44164;44.954;10.068;2023-05-21T00:02:10;9.35;;;7.15;;
58360;SDS011;44164;44.954;10.068;2023-05-21T00:04:37;8.05;;;7.25;;
58360;SDS011;44164;44.954;10.068;2023-05-21T00:07:08;7.75;;;6.95;;
58360;SDS011;44164;44.954;10.068;2023-05-21T00:09:35;8.80;;;7.10;;
58360;SDS011;44164;44.954;10.068;2023-05-21T00:14:29;7.22;;;6.47;;
58360;SDS011;44164;44.954;10.068;2023-05-21T00:16:56;7.43;;;6.72;;
58360;SDS011;44164;44.954;10.068;2023-05-21T00:19:22;9.25;;;7.75;;
58360;SDS011;44164;44.954;10.068;2023-05-21T00:21:48;8.05;;;7.25;;
58360;SDS011;44164;44.954;10.068;2023-05-21T00:24:14;8.05;;;7.25;;
58360;SDS011;44164;44.954;10.068;2023-05-21T00:26:40;9.05;;;8.02;;
58360;SDS011;44164;44.954;10.068;2023-05-21T00:29:06;9.32;;;6.85;;
58360;SDS011;44164;44.954;10.068;2023-05-21T00:31:32;7.90;;;7.10;;
58360;SDS011;44164;44.954;10.068;2023-05-21T00:33:59;8.85;;;7.05;;
58360;SDS011;44164;44.954;10.068;2023-05-21T00:36:25;8.20;;;7.40;;
58360;SDS011;44164;44.954;10.068;2023-05-21T00:38:51;13.23;;;7.03;;
58360;SDS011;44164;44.954;10.068;2023-05-21T00:41:17;7.97;;;7.18;;
58360;SDS011;44164;44.954;10.068;2023-05-21T00:43:44;8.88;;;7.00;;
58360;SDS011;44164;44.954;10.068;2023-05-21T00:46:14;9.30;;;6.93;;
58360;SDS011;44164;44.954;10.068;2023-05-21T00:48:42;8.55;;;6.90;;
58360;SDS011;44164;44.954;10.068;2023-05-21T00:51:11;10.30;;;7.47;;
58360;SDS011;44164;44.954;10.068;2023-05-21T00:53:38;8.48;;;7.38;;
58360;SDS011;44164;44.954;10.068;2023-05-21T00:56:04;8.13;;;6.85;;
58360;SDS011;44164;44.954;10.068;2023-05-21T00:58:30;7.65;;;6.90;;
58360;SDS011;44164;44.954;10.068;2023-05-21T01:00:58;7.77;;;6.97;;
58360;SDS011;44164;44.954;10.068;2023-05-21T01:03:28;8.85;;;7.13;;
58360;SDS011;44164;44.954;10.068;2023-05-21T01:05:55;8.13;;;6.88;;
58360;SDS011;44164;44.954;10.068;2023-05-21T01:08:25;9.10;;;7.53;;
58360;SDS011;44164;44.954;10.068;2023-05-21T01:10:54;9.30;;;7.43;;
58360;SDS011;44164;44.954;10.068;2023-05-21T01:13:21;8.43;;;7.63;;
58360;SDS011;44164;44.954;10.068;2023-05-21T01:15:48;7.63;;;6.93;;
58360;SDS011;44164;44.954;10.068;2023-05-21T01:18:15;7.50;;;6.80;;
58360;SDS011;44164;44.954;10.068;2023-05-21T01:20:41;8.75;;;6.95;;
58360;SDS011;44164;44.954;10.068;2023-05-21T01:23:15;8.23;;;7.43;;
58360;SDS011;44164;44.954;10.068;2023-05-21T01:25:44;8.23;;;6.47;;
58360;SDS011;44164;44.954;10.068;2023-05-21T01:28:11;7.28;;;6.57;;
58360;SDS011;44164;44.954;10.068;2023-05-21T01:30:41;7.60;;;6.82;;
58360;SDS011;44164;44.954;10.068;2023-05-21T01:33:31;7.03;;;6.35;;
58360;SDS011;44164;44.954;10.068;2023-05-21T01:36:06;7.28;;;6.57;;
58360;SDS011;44164;44.954;10.068;2023-05-21T01:38:41;7.93;;;7.13;;
58360;SDS011;44164;44.954;10.068;2023-05-21T01:41:11;7.93;;;6.75;;
58360;SDS011;44164;44.954;10.068;2023-05-21T01:43:38;7.90;;;7.20;;
58360;SDS011;44164;44.954;10.068;2023-05-21T01:46:07;7.30;;;6.53;;
58360;SDS011;44164;44.954;10.068;2023-05-21T01:48:35;7.05;;;6.35;;
58360;SDS011;44164;44.954;10.068;2023-05-21T01:51:02;8.38;;;6.85;;
58360;SDS011;44164;44.954;10.068;2023-05-21T01:53:29;7.20;;;6.50;;
58360;SDS011;44164;44.954;10.068;2023-05-21T01:55:55;8.27;;;7.40;;
58360;SDS011;44164;44.954;10.068;2023-05-21T01:58:21;8.00;;;7.30;;
58360;SDS011;44164;44.954;10.068;2023-05-21T02:00:48;7.18;;;6.47;;
58360;SDS011;44164;44.954;10.068;2023-05-21T02:03:16;7.82;;;6.90;;
58360;SDS011;44164;44.954;10.068;2023-05-21T02:05:42;7.32;;;6.63;;
58360;SDS011;44164;44.954;10.068;2023-05-21T02:08:09;7.30;;;6.53;;
58360;SDS011;44164;44.954;10.068;2023-05-21T02:10:35;7.50;;;6.80;;
58360;SDS011;44164;44.954;10.068;2023-05-21T02:13:01;7.72;;;6.95;;
58360;SDS011;44164;44.954;10.068;2023-05-21T02:15:28;7.65;;;6.93;;
58360;SDS011;44164;44.954;10.068;2023-05-21T02:17:55;8.13;;;7.32;;
58360;SDS011;44164;44.954;10.068;2023-05-21T02:20:21;8.10;;;7.28;;
58360;SDS011;44164;44.954;10.068;2023-05-21T02:22:48;8.47;;;7.03;;
58360;SDS011;44164;44.954;10.068;2023-05-21T02:25:15;7.35;;;6.57;;
58360;SDS011;44164;44.954;10.068;2023-05-21T02:27:43;7.68;;;6.90;;
58360;SDS011;44164;44.954;10.068;2023-05-21T02:30:10;8.20;;;7.10;;
58360;SDS011;44164;44.954;10.068;2023-05-21T02:32:36;7.18;;;6.47;;
58360;SDS011;44164;44.954;10.068;2023-05-21T02:35:04;6.90;;;6.22;;
58360;SDS011;44164;44.954;10.068;2023-05-21T02:37:30;7.95;;;7.15;;
58360;SDS011;44164;44.954;10.068;2023-05-21T02:40:00;7.55;;;6.85;;
58360;SDS011;44164;44.954;10.068;2023-05-21T02:42:28;8.43;;;7.63;;
58360;SDS011;44164;44.954;10.068;2023-05-21T02:44:55;7.30;;;6.60;;
58360;SDS011;44164;44.954;10.068;2023-05-21T02:47:22;8.80;;;6.65;;
58360;SDS011;44164;44.954;10.068;2023-05-21T02:49:49;7.82;;;7.00;;
58360;SDS011;44164;44.954;10.068;2023-05-21T02:52:16;7.00;;;6.30;;
58360;SDS011;44164;44.954;10.068;2023-05-21T02:54:46;7.88;;;7.07;;
58360;SDS011;44164;44.954;10.068;2023-05-21T02:57:12;7.25;;;6.55;;
58360;SDS011;44164;44.954;10.068;2023-05-21T02:59:38;7.18;;;6.47;;
58360;SDS011;44164;44.954;10.068;2023-05-21T03:02:04;7.78;;;6.97;;
58360;SDS011;44164;44.954;10.068;2023-05-21T03:04:31;7.47;;;6.18;;
58360;SDS011;44164;44.954;10.068;2023-05-21T03:06:58;7.50;;;6.72;;
58360;SDS011;44164;44.954;10.068;2023-05-21T03:09:26;7.05;;;6.38;;
58360;SDS011;44164;44.954;10.068;2023-05-21T03:11:55;7.72;;;6.95;;
58360;SDS011;44164;44.954;10.068;2023-05-21T03:14:21;8.07;;;7.28;;
58360;SDS011;44164;44.954;10.068;2023-05-21T03:16:49;7.07;;;6.43;;
58360;SDS011;44164;44.954;10.068;2023-05-21T03:19:16;7.80;;;7.00;;
58360;SDS011;44164;44.954;10.068;2023-05-21T03:21:43;7.68;;;6.88;;
58360;SDS011;44164;44.954;10.068;2023-05-21T03:24:09;8.65;;;6.85;;
58360;SDS011;44164;44.954;10.068;2023-05-21T03:26:38;7.50;;;6.80;;
58360;SDS011;44164;44.954;10.068;2023-05-21T03:29:04;7.57;;;6.80;;
58360;SDS011;44164;44.954;10.068;2023-05-21T03:34:05;8.23;;;7.07;;
58360;SDS011;44164;44.954;10.068;2023-05-21T03:36:33;7.80;;;7.05;;
58360;SDS011;44164;44.954;10.068;2023-05-21T03:38:59;7.78;;;7.07;;
58360;SDS011;44164;44.954;10.068;2023-05-21T03:41:25;7.65;;;6.90;;
58360;SDS011;44164;44.954;10.068;2023-05-21T03:44:03;7.45;;;6.65;;
58360;SDS011;44164;44.954;10.068;2023-05-21T03:46:38;8.05;;;6.60;;
58360;SDS011;44164;44.954;10.068;2023-05-21T03:49:08;7.15;;;6.45;;
58360;SDS011;44164;44.954;10.068;2023-05-21T03:51:36;8.50;;;7.55;;
58360;SDS011;44164;44.954;10.068;2023-05-21T03:54:03;8.23;;;7.22;;
58360;SDS011;44164;44.954;10.068;2023-05-21T03:56:30;7.82;;;7.13;;
58360;SDS011;44164;44.954;10.068;2023-05-21T03:58:56;8.05;;;6.78;;
58360;SDS011;44164;44.954;10.068;2023-05-21T04:01:23;7.75;;;6.95;;
58360;SDS011;44164;44.954;10.068;2023-05-21T04:03:51;7.30;;;6.60;;
58360;SDS011;44164;44.954;10.068;2023-05-21T04:06:20;8.02;;;7.22;;
58360;SDS011;44164;44.954;10.068;2023-05-21T04:08:47;7.47;;;6.68;;
58360;SDS011;44164;44.954;10.068;2023-05-21T04:11:13;8.02;;;7.22;;
58360;SDS011;44164;44.954;10.068;2023-05-21T04:13:40;7.13;;;6.43;;
58360;SDS011;44164;44.954;10.068;2023-05-21T04:16:06;7.13;;;6.43;;
58360;SDS011;44164;44.954;10.068;2023-05-21T04:18:35;7.95;;;7.15;;
58360;SDS011;44164;44.954;10.068;2023-05-21T04:21:02;7.60;;;6.90;;
58360;SDS011;44164;44.954;10.068;2023-05-21T04:23:28;7.45;;;6.75;;
58360;SDS011;44164;44.954;10.068;2023-05-21T04:25:56;8.38;;;6.55;;
58360;SDS011;44164;44.954;10.068;2023-05-21T04:28:22;7.57;;;6.88;;
58360;SDS011;44164;44.954;10.068;2023-05-21T04:30:49;7.93;;;7.05;;
58360;SDS011;44164;44.954;10.068;2023-05-21T04:33:15;7.75;;;6.97;;
58360;SDS011;44164;44.954;10.068;2023-05-21T04:35:43;7.53;;;6.82;;
58360;SDS011;44164;44.954;10.068;2023-05-21T04:38:11;7.18;;;6.47;;
58360;SDS011;44164;44.954;10.068;2023-05-21T04:40:37;6.82;;;6.05;;
58360;SDS011;44164;44.954;10.068;2023-05-21T04:43:03;7.60;;;6.38;;
58360;SDS011;44164;44.954;10.068;2023-05-21T04:45:30;7.72;;;6.93;;
58360;SDS011;44164;44.954;10.068;2023-05-21T04:47:57;7.53;;;6.72;;
58360;SDS011;44164;44.954;10.068;2023-05-21T04:50:27;6.70;;;6.10;;
58360;SDS011;44164;44.954;10.068;2023-05-21T04:52:55;7.00;;;6.32;;
58360;SDS011;44164;44.954;10.068;2023-05-21T04:55:21;8.60;;;7.15;;
58360;SDS011;44164;44.954;10.068;2023-05-21T04:57:47;7.43;;;6.57;;
58360;SDS011;44164;44.954;10.068;2023-05-21T05:00:13;6.38;;;5.78;;
58360;SDS011;44164;44.954;10.068;2023-05-21T05:02:42;7.50;;;6.80;;
58360;SDS011;44164;44.954;10.068;2023-05-21T05:05:08;6.80;;;6.10;;
58360;SDS011;44164;44.954;10.068;2023-05-21T05:07:35;7.78;;;7.00;;
58360;SDS011;44164;44.954;10.068;2023-05-21T05:10:02;7.28;;;6.57;;
58360;SDS011;44164;44.954;10.068;2023-05-21T05:12:31;7.53;;;6.72;;
58360;SDS011;44164;44.954;10.068;2023-05-21T05:14:57;7.00;;;6.30;;
58360;SDS011;44164;44.954;10.068;2023-05-21T05:17:23;7.30;;;6.60;;
58360;SDS011;44164;44.954;10.068;2023-05-21T05:19:50;7.03;;;6.32;;
58360;SDS011;44164;44.954;10.068;2023-05-21T05:22:18;7.03;;;6.32;;
58360;SDS011;44164;44.954;10.068;2023-05-21T05:24:44;7.40;;;6.70;;
58360;SDS011;44164;44.954;10.068;2023-05-21T05:27:10;7.43;;;6.72;;
58360;SDS011;44164;44.954;10.068;2023-05-21T05:29:37;7.00;;;6.30;;
58360;SDS011;44164;44.954;10.068;2023-05-21T05:32:03;9.18;;;6.72;;
58360;SDS011;44164;44.954;10.068;2023-05-21T05:34:30;7.65;;;6.90;;
58360;SDS011;44164;44.954;10.068;2023-05-21T05:36:57;7.18;;;6.07;;
58360;SDS011;44164;44.954;10.068;2023-05-21T05:39:23;8.18;;;6.38;;
58360;SDS011;44164;44.954;10.068;2023-05-21T05:41:50;7.70;;;6.93;;
58360;SDS011;44164;44.954;10.068;2023-05-21T05:44:16;6.78;;;6.07;;
58360;SDS011;44164;44.954;10.068;2023-05-21T05:46:43;7.27;;;6.57;;
58360;SDS011;44164;44.954;10.068;2023-05-21T05:49:09;8.07;;;6.57;;
58360;SDS011;44164;44.954;10.068;2023-05-21T05:51:35;6.80;;;6.15;;
58360;SDS011;44164;44.954;10.068;2023-05-21T05:54:02;9.45;;;7.43;;
58360;SDS011;44164;44.954;10.068;2023-05-21T05:56:28;7.43;;;6.18;;
58360;SDS011;44164;44.954;10.068;2023-05-21T05:58:54;7.18;;;6.47;;
58360;SDS011;44164;44.954;10.068;2023-05-21T06:01:20;8.00;;;7.05;;
58360;SDS011;44164;44.954;10.068;2023-05-21T06:03:49;7.63;;;6.35;;
58360;SDS011;44164;44.954;10.068;2023-05-21T06:06:17;7.97;;;6.90;;
58360;SDS011;44164;44.954;10.068;2023-05-21T06:08:43;6.53;;;5.93;;
58360;SDS011;44164;44.954;10.068;2023-05-21T06:11:11;8.38;;;7.43;;
58360;SDS011;44164;44.954;10.068;2023-05-21T06:13:37;6.90;;;6.20;;
58360;SDS011;44164;44.954;10.068;2023-05-21T06:16:04;6.70;;;6.10;;
58360;SDS011;44164;44.954;10.068;2023-05-21T06:18:31;7.35;;;6.53;;
58360;SDS011;44164;44.954;10.068;2023-05-21T06:20:58;7.45;;;6.20;;
58360;SDS011;44164;44.954;10.068;2023-05-21T06:23:26;7.90;;;6.78;;
58360;SDS011;44164;44.954;10.068;2023-05-21T06:25:52;6.72;;;5.78;;
58360;SDS011;44164;44.954;10.068;2023-05-21T06:28:19;7.50;;;6.80;;
58360;SDS011;44164;44.954;10.068;2023-05-21T06:30:46;7.25;;;6.55;;
58360;SDS011;44164;44.954;10.068;2023-05-21T06:33:12;8.38;;;6.72;;
58360;SDS011;44164;44.954;10.068;2023-05-21T06:35:38;6.78;;;6.18;;
58360;SDS011;44164;44.954;10.068;2023-05-21T06:38:06;6.90;;;6.20;;
58360;SDS011;44164;44.954;10.068;2023-05-21T06:40:33;7.63;;;6.68;;
58360;SDS011;44164;44.954;10.068;2023-05-21T06:42:59;6.90;;;6.20;;
58360;SDS011;44164;44.954;10.068;2023-05-21T06:45:44;7.38;;;6.68;;
58360;SDS011;44164;44.954;10.068;2023-05-21T06:48:24;6.57;;;5.85;;
58360;SDS011;44164;44.954;10.068;2023-05-21T06:50:50;7.15;;;6.50;;
58360;SDS011;44164;44.954;10.068;2023-05-21T06:53:17;6.90;;;6.10;;
58360;SDS011;44164;44.954;10.068;2023-05-21T06:55:44;6.47;;;5.88;;
58360;SDS011;44164;44.954;10.068;2023-05-21T06:58:14;7.90;;;7.10;;
58360;SDS011;44164;44.954;10.068;2023-05-21T07:00:41;6.80;;;6.10;;
58360;SDS011;44164;44.954;10.068;2023-05-21T07:03:07;7.43;;;6.72;;
58360;SDS011;44164;44.954;10.068;2023-05-21T07:05:33;8.95;;;6.72;;
58360;SDS011;44164;44.954;10.068;2023-05-21T07:07:59;6.57;;;5.88;;
58360;SDS011;44164;44.954;10.068;2023-05-21T07:10:25;7.53;;;6.68;;
58360;SDS011;44164;44.954;10.068;2023-05-21T07:12:51;7.43;;;6.72;;
58360;SDS011;44164;44.954;10.068;2023-05-21T07:15:19;7.57;;;6.85;;
58360;SDS011;44164;44.954;10.068;2023-05-21T07:17:45;8.50;;;6.97;;
58360;SDS011;44164;44.954;10.068;2023-05-21T07:20:11;8.98;;;7.28;;
58360;SDS011;44164;44.954;10.068;2023-05-21T07:22:41;7.93;;;7.22;;
58360;SDS011;44164;44.954;10.068;2023-05-21T07:25:09;7.72;;;7.00;;
58360;SDS011;44164;44.954;10.068;2023-05-21T07:27:36;6.90;;;6.20;;
58360;SDS011;44164;44.954;10.068;2023-05-21T07:30:03;7.90;;;6.53;;
58360;SDS011;44164;44.954;10.068;2023-05-21T07:32:30;7.00;;;6.30;;
58360;SDS011;44164;44.954;10.068;2023-05-21T07:34:58;7.35;;;6.63;;
58360;SDS011;44164;44.954;10.068;2023-05-21T07:37:26;8.15;;;7.25;;
58360;SDS011;44164;44.954;10.068;2023-05-21T07:39:53;6.68;;;5.97;;
58360;SDS011;44164;44.954;10.068;2023-05-21T07:44:47;7.63;;;6.15;;
58360;SDS011;44164;44.954;10.068;2023-05-21T07:47:13;9.65;;;6.28;;
58360;SDS011;44164;44.954;10.068;2023-05-21T07:49:39;7.57;;;6.20;;
58360;SDS011;44164;44.954;10.068;2023-05-21T07:52:05;8.15;;;6.85;;
58360;SDS011;44164;44.954;10.068;2023-05-21T07:54:32;6.93;;;6.22;;
58360;SDS011;44164;44.954;10.068;2023-05-21T07:56:58;8.20;;;6.70;;
58360;SDS011;44164;44.954;10.068;2023-05-21T07:59:47;7.07;;;6.38;;
58360;SDS011;44164;44.954;10.068;2023-05-21T08:02:13;7.35;;;6.65;;
58360;SDS011;44164;44.954;10.068;2023-05-21T08:04:39;6.95;;;6.25;;
58360;SDS011;44164;44.954;10.068;2023-05-21T08:07:07;8.80;;;6.70;;
58360;SDS011;44164;44.954;10.068;2023-05-21T08:09:34;8.13;;;7.30;;
58360;SDS011;44164;44.954;10.068;2023-05-21T08:12:00;7.72;;;6.60;;
58360;SDS011;44164;44.954;10.068;2023-05-21T08:14:26;7.05;;;6.35;;
58360;SDS011;44164;44.954;10.068;2023-05-21T08:16:53;9.57;;;7.03;;
58360;SDS011;44164;44.954;10.068;2023-05-21T08:19:19;7.88;;;6.70;;
58360;SDS011;44164;44.954;10.068;2023-05-21T08:21:46;7.87;;;7.07;;
58360;SDS011;44164;44.954;10.068;2023-05-21T08:24:13;7.28;;;6.10;;
58360;SDS011;44164;44.954;10.068;2023-05-21T08:26:39;6.97;;;6.28;;
58360;SDS011;44164;44.954;10.068;2023-05-21T08:29:05;6.60;;;5.50;;
58360;SDS011;44164;44.954;10.068;2023-05-21T08:31:33;6.95;;;6.25;;
58360;SDS011;44164;44.954;10.068;2023-05-21T08:33:59;6.20;;;5.60;;
58360;SDS011;44164;44.954;10.068;2023-05-21T08:36:37;7.00;;;6.25;;
58360;SDS011;44164;44.954;10.068;2023-05-21T08:39:10;8.38;;;6.25;;
58360;SDS011;44164;44.954;10.068;2023-05-21T08:41:42;7.18;;;6.47;;
58360;SDS011;44164;44.954;10.068;2023-05-21T08:44:14;6.45;;;5.85;;
58360;SDS011;44164;44.954;10.068;2023-05-21T08:46:45;5.80;;;5.20;;
58360;SDS011;44164;44.954;10.068;2023-05-21T08:49:14;7.20;;;6.50;;
58360;SDS011;44164;44.954;10.068;2023-05-21T08:51:42;8.52;;;5.75;;
58360;SDS011;44164;44.954;10.068;2023-05-21T08:54:09;6.80;;;6.20;;
58360;SDS011;44164;44.954;10.068;2023-05-21T08:56:38;7.03;;;6.32;;
58360;SDS011;44164;44.954;10.068;2023-05-21T08:59:10;6.57;;;5.88;;
58360;SDS011;44164;44.954;10.068;2023-05-21T09:01:36;7.32;;;5.88;;
58360;SDS011;44164;44.954;10.068;2023-05-21T09:04:20;6.18;;;5.35;;
58360;SDS011;44164;44.954;10.068;2023-05-21T09:06:48;6.68;;;5.55;;
58360;SDS011;44164;44.954;10.068;2023-05-21T09:09:24;5.78;;;5.28;;
58360;SDS011;44164;44.954;10.068;2023-05-21T09:12:12;6.97;;;5.57;;
58360;SDS011;44164;44.954;10.068;2023-05-21T09:14:38;6.90;;;5.78;;
58360;SDS011;44164;44.954;10.068;2023-05-21T09:17:15;6.75;;;6.05;;
58360;SDS011;44164;44.954;10.068;2023-05-21T09:22:55;6.25;;;5.65;;
58360;SDS011;44164;44.954;10.068;2023-05-21T09:25:24;6.15;;;5.07;;
58360;SDS011;44164;44.954;10.068;2023-05-21T09:27:56;5.72;;;5.07;;
58360;SDS011;44164;44.954;10.068;2023-05-21T09:30:23;6.25;;;5.65;;
58360;SDS011;44164;44.954;10.068;2023-05-21T09:32:55;6.37;;;5.63;;
58360;SDS011;44164;44.954;10.068;2023-05-21T09:35:22;6.10;;;5.50;;
58360;SDS011;44164;44.954;10.068;2023-05-21T09:37:49;6.90;;;5.38;;
58360;SDS011;44164;44.954;10.068;2023-05-21T09:42:48;6.27;;;5.50;;
58360;SDS011;44164;44.954;10.068;2023-05-21T09:45:19;6.28;;;5.68;;
58360;SDS011;44164;44.954;10.068;2023-05-21T09:47:47;7.00;;;5.40;;
58360;SDS011;44164;44.954;10.068;2023-05-21T09:50:21;5.38;;;4.88;;
58360;SDS011;44164;44.954;10.068;2023-05-21T09:52:49;5.93;;;5.28;;
58360;SDS011;44164;44.954;10.068;2023-05-21T09:55:21;6.53;;;5.82;;
58360;SDS011;44164;44.954;10.068;2023-05-21T09:57:48;7.28;;;5.60;;
58360;SDS011;44164;44.954;10.068;2023-05-21T10:00:26;5.80;;;5.20;;
58360;SDS011;44164;44.954;10.068;2023-05-21T10:02:53;5.53;;;5.03;;
58360;SDS011;44164;44.954;10.068;2023-05-21T10:05:20;7.55;;;5.20;;
58360;SDS011;44164;44.954;10.068;2023-05-21T10:07:51;6.68;;;5.07;;
58360;SDS011;44164;44.954;10.068;2023-05-21T10:10:18;6.40;;;4.97;;
58360;SDS011;44164;44.954;10.068;2023-05-21T10:12:46;6.35;;;5.43;;
58360;SDS011;44164;44.954;10.068;2023-05-21T10:15:13;7.75;;;5.00;;
58360;SDS011;44164;44.954;10.068;2023-05-21T10:17:41;5.03;;;4.53;;
58360;SDS011;44164;44.954;10.068;2023-05-21T10:20:09;5.90;;;5.30;;
58360;SDS011;44164;44.954;10.068;2023-05-21T10:22:36;7.17;;;5.83;;
58360;SDS011;44164;44.954;10.068;2023-05-21T10:25:02;5.60;;;5.00;;
58360;SDS011;44164;44.954;10.068;2023-05-21T10:27:30;7.00;;;5.28;;
58360;SDS011;44164;44.954;10.068;2023-05-21T10:29:56;9.45;;;5.63;;
58360;SDS011;44164;44.954;10.068;2023-05-21T10:32:24;5.78;;;4.70;;
58360;SDS011;44164;44.954;10.068;2023-05-21T10:34:54;5.95;;;4.95;;
58360;SDS011;44164;44.954;10.068;2023-05-21T10:37:25;6.03;;;4.65;;
58360;SDS011;44164;44.954;10.068;2023-05-21T10:39:52;8.50;;;5.18;;
58360;SDS011;44164;44.954;10.068;2023-05-21T10:53:07;8.95;;;4.93;;
58360;SDS011;44164;44.954;10.068;2023-05-21T10:55:50;5.40;;;4.90;;
58360;SDS011;44164;44.954;10.068;2023-05-21T10:58:37;6.78;;;5.65;;
58360;SDS011;44164;44.954;10.068;2023-05-21T11:01:12;8.15;;;5.72;;
58360;SDS011;44164;44.954;10.068;2023-05-21T11:03:39;4.93;;;4.47;;
58360;SDS011;44164;44.954;10.068;2023-05-21T11:06:05;7.22;;;4.72;;
58360;SDS011;44164;44.954;10.068;2023-05-21T11:08:33;7.15;;;5.15;;
58360;SDS011;44164;44.954;10.068;2023-05-21T11:11:02;5.85;;;5.25;;
58360;SDS011;44164;44.954;10.068;2023-05-21T11:13:43;8.20;;;5.85;;
58360;SDS011;44164;44.954;10.068;2023-05-21T11:16:14;6.50;;;5.45;;
58360;SDS011;44164;44.954;10.068;2023-05-21T11:21:16;6.40;;;5.30;;
58360;SDS011;44164;44.954;10.068;2023-05-21T11:26:18;6.47;;;4.88;;
58360;SDS011;44164;44.954;10.068;2023-05-21T11:29:04;7.10;;;5.50;;
58360;SDS011;44164;44.954;10.068;2023-05-21T11:31:35;7.40;;;5.53;;
58360;SDS011;44164;44.954;10.068;2023-05-21T11:34:22;6.70;;;5.82;;
58360;SDS011;44164;44.954;10.068;2023-05-21T11:40:15;6.78;;;5.72;;
58360;SDS011;44164;44.954;10.068;2023-05-21T11:42:49;6.35;;;5.70;;
58360;SDS011;44164;44.954;10.068;2023-05-21T11:45:20;7.72;;;5.25;;
58360;SDS011;44164;44.954;10.068;2023-05-21T11:47:47;7.78;;;4.97;;
58360;SDS011;44164;44.954;10.068;2023-05-21T11:50:14;6.88;;;5.30;;
58360;SDS011;44164;44.954;10.068;2023-05-21T11:52:41;7.53;;;5.30;;
58360;SDS011;44164;44.954;10.068;2023-05-21T11:55:08;10.45;;;5.50;;
58360;SDS011;44164;44.954;10.068;2023-05-21T12:00:02;6.22;;;5.22;;
58360;SDS011;44164;44.954;10.068;2023-05-21T12:02:42;7.47;;;6.05;;
58360;SDS011;44164;44.954;10.068;2023-05-21T12:05:17;8.40;;;6.45;;
58360;SDS011;44164;44.954;10.068;2023-05-21T12:07:46;8.52;;;6.38;;
58360;SDS011;44164;44.954;10.068;2023-05-21T12:10:14;8.25;;;7.45;;
58360;SDS011;44164;44.954;10.068;2023-05-21T12:12:40;7.25;;;6.53;;
58360;SDS011;44164;44.954;10.068;2023-05-21T12:15:07;8.80;;;6.32;;
58360;SDS011;44164;44.954;10.068;2023-05-21T12:17:34;9.38;;;6.63;;
58360;SDS011;44164;44.954;10.068;2023-05-21T12:20:00;7.82;;;5.80;;
58360;SDS011;44164;44.954;10.068;2023-05-21T12:22:27;9.90;;;6.25;;
58360;SDS011;44164;44.954;10.068;2023-05-21T12:24:54;7.37;;;5.87;;
58360;SDS011;44164;44.954;10.068;2023-05-21T12:27:23;7.72;;;5.82;;
58360;SDS011;44164;44.954;10.068;2023-05-21T12:29:49;6.70;;;5.85;;
58360;SDS011;44164;44.954;10.068;2023-05-21T12:32:19;6.82;;;6.13;;
58360;SDS011;44164;44.954;10.068;2023-05-21T12:34:50;6.70;;;6.00;;
58360;SDS011;44164;44.954;10.068;2023-05-21T12:37:20;6.78;;;5.90;;
58360;SDS011;44164;44.954;10.068;2023-05-21T12:39:54;11.07;;;5.75;;
58360;SDS011;44164;44.954;10.068;2023-05-21T12:42:32;6.82;;;5.72;;
58360;SDS011;44164;44.954;10.068;2023-05-21T12:45:05;6.60;;;5.35;;
58360;SDS011;44164;44.954;10.068;2023-05-21T12:47:32;8.20;;;5.43;;
58360;SDS011;44164;44.954;10.068;2023-05-21T12:49:59;7.05;;;6.15;;
58360;SDS011;44164;44.954;10.068;2023-05-21T12:52:28;6.43;;;5.00;;
58360;SDS011;44164;44.954;10.068;2023-05-21T12:54:58;6.63;;;4.90;;
58360;SDS011;44164;44.954;10.068;2023-05-21T12:57:35;7.93;;;5.68;;
58360;SDS011;44164;44.954;10.068;2023-05-21T13:00:02;6.88;;;5.65;;
58360;SDS011;44164;44.954;10.068;2023-05-21T13:02:37;9.23;;;5.55;;
58360;SDS011;44164;44.954;10.068;2023-05-21T13:05:04;5.88;;;5.38;;
58360;SDS011;44164;44.954;10.068;2023-05-21T13:07:33;7.72;;;5.78;;
58360;SDS011;44164;44.954;10.068;2023-05-21T13:10:00;6.22;;;5.60;;
58360;SDS011;44164;44.954;10.068;2023-05-21T13:12:28;6.93;;;5.33;;
58360;SDS011;44164;44.954;10.068;2023-05-21T13:14:59;7.68;;;5.30;;
58360;SDS011;44164;44.954;10.068;2023-05-21T13:17:26;9.85;;;5.97;;
58360;SDS011;44164;44.954;10.068;2023-05-21T13:22:41;8.50;;;5.80;;
58360;SDS011;44164;44.954;10.068;2023-05-21T13:25:12;6.75;;;5.45;;
58360;SDS011;44164;44.954;10.068;2023-05-21T13:30:16;8.70;;;5.57;;
58360;SDS011;44164;44.954;10.068;2023-05-21T13:32:43;6.73;;;5.37;;
58360;SDS011;44164;44.954;10.068;2023-05-21T13:35:09;6.90;;;5.57;;
58360;SDS011;44164;44.954;10.068;2023-05-21T13:37:37;6.77;;;5.73;;
58360;SDS011;44164;44.954;10.068;2023-05-21T13:42:31;6.22;;;5.35;;
58360;SDS011;44164;44.954;10.068;2023-05-21T13:44:58;11.88;;;6.18;;
58360;SDS011;44164;44.954;10.068;2023-05-21T13:47:24;10.80;;;8.93;;
58360;SDS011;44164;44.954;10.068;2023-05-21T13:49:50;11.68;;;8.27;;
58360;SDS011;44164;44.954;10.068;2023-05-21T13:52:16;16.77;;;8.60;;
58360;SDS011;44164;44.954;10.068;2023-05-21T13:54:42;12.18;;;7.85;;
58360;SDS011;44164;44.954;10.068;2023-05-21T13:57:09;11.13;;;7.53;;
58360;SDS011;44164;44.954;10.068;2023-05-21T13:59:35;9.20;;;8.15;;
58360;SDS011;44164;44.954;10.068;2023-05-21T14:02:01;13.40;;;8.68;;
58360;SDS011;44164;44.954;10.068;2023-05-21T14:04:27;11.27;;;9.00;;
58360;SDS011;44164;44.954;10.068;2023-05-21T14:06:53;11.75;;;9.40;;
58360;SDS011;44164;44.954;10.068;2023-05-21T14:09:19;14.20;;;9.63;;
58360;SDS011;44164;44.954;10.068;2023-05-21T14:11:46;11.52;;;9.80;;
58360;SDS011;44164;44.954;10.068;2023-05-21T14:14:12;12.38;;;9.10;;
58360;SDS011;44164;44.954;10.068;2023-05-21T14:16:46;13.85;;;9.05;;
58360;SDS011;44164;44.954;10.068;2023-05-21T14:19:12;12.70;;;9.60;;
58360;SDS011;44164;44.954;10.068;2023-05-21T14:21:39;14.27;;;9.45;;
58360;SDS011;44164;44.954;10.068;2023-05-21T14:24:05;15.05;;;10.10;;
58360;SDS011;44164;44.954;10.068;2023-05-21T14:26:31;12.07;;;10.20;;
58360;SDS011;44164;44.954;10.068;2023-05-21T14:28:57;13.57;;;9.18;;
58360;SDS011;44164;44.954;10.068;2023-05-21T14:31:23;11.75;;;9.50;;
58360;SDS011;44164;44.954;10.068;2023-05-21T14:33:50;11.63;;;9.45;;
58360;SDS011;44164;44.954;10.068;2023-05-21T14:36:16;12.38;;;9.80;;
58360;SDS011;44164;44.954;10.068;2023-05-21T14:38:42;11.23;;;9.35;;
58360;SDS011;44164;44.954;10.068;2023-05-21T14:41:08;14.65;;;10.48;;
58360;SDS011;44164;44.954;10.068;2023-05-21T14:43:34;12.52;;;9.52;;
58360;SDS011;44164;44.954;10.068;2023-05-21T14:46:01;11.07;;;10.05;;
58360;SDS011;44164;44.954;10.068;2023-05-21T14:48:27;13.15;;;10.77;;
58360;SDS011;44164;44.954;10.068;2023-05-21T14:50:53;10.93;;;9.82;;
58360;SDS011;44164;44.954;10.068;2023-05-21T14:53:19;11.77;;;10.57;;
58360;SDS011;44164;44.954;10.068;2023-05-21T14:55:46;15.07;;;10.98;;
58360;SDS011;44164;44.954;10.068;2023-05-21T14:58:12;12.70;;;11.25;;
58360;SDS011;44164;44.954;10.068;2023-05-21T15:00:38;11.95;;;10.75;;
58360;SDS011;44164;44.954;10.068;2023-05-21T15:03:04;12.43;;;11.23;;
58360;SDS011;44164;44.954;10.068;2023-05-21T15:05:31;11.15;;;10.00;;
58360;SDS011;44164;44.954;10.068;2023-05-21T15:07:57;15.13;;;11.07;;
58360;SDS011;44164;44.954;10.068;2023-05-21T15:10:24;11.75;;;10.00;;
58360;SDS011;44164;44.954;10.068;2023-05-21T15:12:51;13.68;;;12.00;;
58360;SDS011;44164;44.954;10.068;2023-05-21T15:15:18;13.95;;;12.18;;
58360;SDS011;44164;44.954;10.068;2023-05-21T15:17:45;13.48;;;12.07;;
58360;SDS011;44164;44.954;10.068;2023-05-21T15:20:12;16.65;;;12.50;;
58360;SDS011;44164;44.954;10.068;2023-05-21T15:22:39;14.50;;;13.02;;